| time (UTC) | temp C | wind direction | speed KPH | gust KPH | rain 1hr cm | rain 24hr cm | rain mn cm | humidity % | barometer mb |
| 20260510224546 | 34 | 178 | 8.0 | 20.9 | 0.00 | 0.00 | 0.00 | 50 | 1006.0 |
| 20260510223047 | 34 | 215 | 12.9 | 20.9 | 0.00 | 0.00 | 0.00 | 48 | 1006.0 |
| 20260510221548 | 34 | 157 | 14.5 | 20.9 | 0.00 | 0.00 | 0.00 | 48 | 1006.3 |
| 20260510220050 | 34 | 218 | 14.5 | 20.9 | 0.00 | 0.00 | 0.00 | 49 | 1006.3 |
| 20260510214545 | 34 | 194 | 9.7 | 22.5 | 0.00 | 0.00 | 0.00 | 49 | 1006.3 |
| 20260510214543 | 34 | 197 | 9.7 | 22.5 | 0.00 | 0.00 | 0.00 | 49 | 1006.3 |
| 20260510213041 | 34 | 207 | 12.9 | 22.5 | 0.00 | 0.00 | 0.00 | 51 | 1006.4 |
| 20260510211542 | 34 | 152 | 12.9 | 22.5 | 0.00 | 0.00 | 0.00 | 51 | 1006.3 |
| 20260510211540 | 34 | 173 | 12.9 | 22.5 | 0.00 | 0.00 | 0.00 | 51 | 1006.3 |
| 20260510210039 | 35 | 178 | 12.9 | 25.7 | 0.00 | 0.00 | 0.00 | 49 | 1006.2 |
| 20260510204538 | 35 | 207 | 9.7 | 20.9 | 0.00 | 0.00 | 0.00 | 49 | 1006.3 |
| 20260510203041 | 34 | 182 | 16.1 | 25.7 | 0.00 | 0.00 | 0.00 | 49 | 1006.2 |
| 20260510201538 | 34 | 147 | 9.7 | 30.6 | 0.00 | 0.00 | 0.00 | 52 | 1006.4 |
| 20260510200039 | 35 | 207 | 14.5 | 24.1 | 0.00 | 0.00 | 0.00 | 49 | 1006.9 |
| 20260510194535 | 35 | 192 | 11.3 | 20.9 | 0.00 | 0.00 | 0.00 | 51 | 1007.0 |
| 20260510193035 | 35 | 167 | 11.3 | 22.5 | 0.00 | 0.00 | 0.00 | 50 | 1007.3 |
| 20260510191535 | 34 | 171 | 12.9 | 29.0 | 0.00 | 0.00 | 0.00 | 53 | 1007.7 |
| 20260510190033 | 35 | 182 | 14.5 | 29.0 | 0.00 | 0.00 | 0.00 | 49 | 1007.8 |
| 20260510184532 | 35 | 190 | 9.7 | 25.7 | 0.00 | 0.00 | 0.00 | 52 | 1007.9 |
| 20260510183035 | 35 | 142 | 16.1 | 29.0 | 0.00 | 0.00 | 0.00 | 51 | 1008.3 |
| 20260510181524 | 34 | 190 | 12.9 | 29.0 | 0.00 | 0.00 | 0.00 | 54 | 1008.5 |
| 20260510180035 | 35 | 215 | 12.9 | 25.7 | 0.00 | 0.00 | 0.00 | 53 | 1008.6 |
| 20260510174523 | 34 | 221 | 16.1 | 29.0 | 0.00 | 0.00 | 0.00 | 54 | 1008.9 |
| 20260510173020 | 34 | 360 | 12.9 | 24.1 | 0.00 | 0.00 | 0.00 | 55 | 1009.2 |
| 20260510171520 | 34 | 159 | 16.1 | 25.7 | 0.00 | 0.00 | 0.00 | 55 | 1009.2 |
| 20260510170019 | 35 | 191 | 16.1 | 30.6 | 0.00 | 0.00 | 0.00 | 55 | 1009.3 |
| 20260510164532 | 35 | 207 | 12.9 | 20.9 | 0.00 | 0.00 | 0.00 | 54 | 1009.3 |
| 20260510163018 | 35 | 165 | 14.5 | 22.5 | 0.00 | 0.00 | 0.00 | 56 | 1009.4 |
| 20260510161513 | 34 | 198 | 3.2 | 11.3 | 0.00 | 0.00 | 0.00 | 56 | 1009.6 |
| 20260510160007 | 33 | 112 | 4.8 | 12.9 | 0.00 | 0.00 | 0.00 | 59 | 1009.8 |
| 20260510154508 | 33 | 166 | 11.3 | 16.1 | 0.00 | 0.00 | 0.00 | 61 | 1009.9 |
| 20260510153101 | 32 | 143 | 9.7 | 17.7 | 0.00 | 0.00 | 0.00 | 64 | 1009.8 |
| 20260510151557 | 32 | 232 | 8.0 | 17.7 | 0.00 | 0.00 | 0.00 | 63 | 1009.8 |
| 20260510150055 | 32 | 161 | 8.0 | 16.1 | 0.00 | 0.00 | 0.00 | 62 | 1009.6 |
| 20260510144553 | 32 | 145 | 8.0 | 16.1 | 0.00 | 0.00 | 0.00 | 61 | 1009.4 |
| 20260510143051 | 31 | 138 | 6.4 | 9.7 | 0.00 | 0.00 | 0.00 | 61 | 1009.1 |
| 20260510141544 | 30 | 200 | 0.0 | 0.0 | 0.00 | 0.00 | 0.00 | 62 | 1009.0 |
| 20260510140045 | 29 | 19 | 0.0 | 1.6 | 0.00 | 0.00 | 0.00 | 67 | 1008.8 |
| 20260510134543 | 28 | 19 | 0.0 | 3.2 | 0.00 | 0.00 | 0.00 | 70 | 1008.9 |
| 20260510133016 | 27 | 24 | 0.0 | 8.0 | 0.00 | 0.00 | 0.00 | 73 | 1008.8 |
| 20260510131514 | 26 | 344 | 3.2 | 6.4 | 0.00 | 0.00 | 0.00 | 78 | 1008.8 |
| 20260510130015 | 25 | 13 | 3.2 | 8.0 | 0.00 | 0.00 | 0.00 | 79 | 1008.9 |
| 20260510124514 | 24 | 313 | 0.0 | 0.0 | 0.00 | 0.00 | 0.00 | 82 | 1008.4 |
| 20260510123011 | 24 | 309 | 0.0 | 0.0 | 0.00 | 0.00 | 0.00 | 83 | 1008.3 |
| 20260510121508 | 24 | 308 | 0.0 | 1.6 | 0.00 | 0.00 | 0.00 | 83 | 1008.0 |
| 20260510120056 | 24 | 312 | 0.0 | 0.0 | 0.00 | 0.00 | 0.00 | 82 | 1007.6 |
| 20260510114555 | 24 | 313 | 0.0 | 0.0 | 0.00 | 0.00 | 0.00 | 81 | 1007.5 |
| 20260510113102 | 25 | 313 | 0.0 | 0.0 | 0.00 | 0.00 | 0.00 | 81 | 1007.3 |
| 20260510111610 | 25 | 313 | 0.0 | 0.0 | 0.00 | 0.00 | 0.00 | 81 | 1007.3 |
| 20260510110056 | 25 | 321 | 0.0 | 0.0 | 0.00 | 0.00 | 0.00 | 81 | 1007.2 |
| 20260510104607 | 25 | 323 | 0.0 | 1.6 | 0.00 | 0.00 | 0.00 | 82 | 1007.0 |
| 20260510103055 | 25 | 315 | 0.0 | 6.4 | 0.00 | 0.00 | 0.00 | 82 | 1007.1 |
| 20260510101555 | 25 | 286 | 0.0 | 6.4 | 0.00 | 0.00 | 0.00 | 83 | 1006.9 |
| 20260510100058 | 25 | 307 | 3.2 | 8.0 | 0.00 | 0.00 | 0.00 | 82 | 1007.0 |
| 20260510094553 | 25 | 305 | 1.6 | 6.4 | 0.00 | 0.00 | 0.00 | 81 | 1007.2 |
| 20260510093052 | 25 | 303 | 1.6 | 9.7 | 0.00 | 0.00 | 0.00 | 81 | 1007.3 |
| 20260510091557 | 25 | 298 | 4.8 | 9.7 | 0.00 | 0.00 | 0.00 | 79 | 1007.4 |
| 20260510090026 | 25 | 309 | 3.2 | 4.8 | 0.00 | 0.00 | 0.00 | 80 | 1007.5 |
| 20260510084527 | 25 | 302 | 1.6 | 4.8 | 0.00 | 0.00 | 0.00 | 80 | 1007.7 |
| 20260510083023 | 25 | 315 | 1.6 | 4.8 | 0.00 | 0.00 | 0.00 | 80 | 1007.7 |
| 20260510081533 | 25 | 305 | 0.0 | 6.4 | 0.00 | 0.00 | 0.00 | 81 | 1007.8 |
| 20260510080020 | 25 | 305 | 1.6 | 3.2 | 0.00 | 0.00 | 0.00 | 81 | 1007.6 |
| 20260510074519 | 26 | 285 | 1.6 | 6.4 | 0.00 | 0.00 | 0.00 | 80 | 1007.6 |
| 20260510073022 | 26 | 309 | 1.6 | 8.0 | 0.00 | 0.00 | 0.00 | 81 | 1007.7 |
| 20260510071516 | 26 | 279 | 1.6 | 6.4 | 0.00 | 0.00 | 0.00 | 81 | 1007.9 |
| 20260510070016 | 26 | 247 | 0.0 | 6.4 | 0.00 | 0.00 | 0.00 | 81 | 1007.7 |
| 20260510064537 | 26 | 305 | 0.0 | 4.8 | 0.00 | 0.00 | 0.00 | 79 | 1007.9 |
| 20260510063015 | 26 | 314 | 4.8 | 8.0 | 0.00 | 0.00 | 0.00 | 79 | 1008.3 |
| 20260510061506 | 27 | 309 | 0.0 | 6.4 | 0.00 | 0.00 | 0.00 | 79 | 1008.6 |
| 20260510060014 | 27 | 305 | 0.0 | 3.2 | 0.00 | 0.00 | 0.00 | 80 | 1008.7 |
| 20260510054503 | 27 | 281 | 0.0 | 3.2 | 0.00 | 0.00 | 0.00 | 80 | 1008.9 |
| 20260510053100 | 27 | 263 | 0.0 | 1.6 | 0.00 | 0.00 | 0.00 | 79 | 1009.1 |
| 20260510051607 | 27 | 297 | 0.0 | 3.2 | 0.00 | 0.00 | 0.00 | 79 | 1009.2 |
| 20260510050058 | 28 | 323 | 0.0 | 3.2 | 0.00 | 0.00 | 0.00 | 78 | 1009.2 |
| 20260510044604 | 28 | 327 | 1.6 | 6.4 | 0.00 | 0.00 | 0.00 | 76 | 1009.2 |
| 20260510043051 | 28 | 315 | 1.6 | 6.4 | 0.00 | 0.00 | 0.00 | 74 | 1009.1 |
| 20260510041520 | 28 | 336 | 0.0 | 8.0 | 0.00 | 0.00 | 0.00 | 75 | 1008.9 |
| 20260510040021 | 28 | 337 | 4.8 | 8.0 | 0.00 | 0.00 | 0.00 | 75 | 1008.9 |
| 20260510034555 | 28 | 191 | 0.0 | 0.0 | 0.00 | 0.00 | 0.00 | 77 | 1008.7 |
| 20260510033047 | 28 | 191 | 0.0 | 1.6 | 0.00 | 0.00 | 0.00 | 76 | 1008.6 |
| 20260510031548 | 28 | 196 | 0.0 | 3.2 | 0.00 | 0.00 | 0.00 | 75 | 1008.5 |
| 20260510030043 | 28 | 184 | 0.0 | 8.0 | 0.00 | 0.00 | 0.00 | 74 | 1008.1 |
| 20260510024541 | 29 | 209 | 1.6 | 6.4 | 0.00 | 0.00 | 0.00 | 72 | 1007.8 |
| 20260510023033 | 29 | 209 | 0.0 | 8.0 | 0.00 | 0.00 | 0.00 | 69 | 1007.5 |
| 20260510021527 | 29 | 196 | 1.6 | 9.7 | 0.00 | 0.00 | 0.00 | 68 | 1007.2 |
| 20260510020023 | 29 | 210 | 1.6 | 8.0 | 0.00 | 0.00 | 0.00 | 68 | 1007.0 |
| 20260510014523 | 30 | 229 | 6.4 | 12.9 | 0.00 | 0.00 | 0.00 | 68 | 1006.5 |
| 20260510013020 | 30 | 217 | 4.8 | 16.1 | 0.00 | 0.00 | 0.00 | 67 | 1006.0 |
| 20260510011512 | 30 | 206 | 3.2 | 14.5 | 0.00 | 0.00 | 0.00 | 66 | 1005.9 |
| 20260510010007 | 31 | 198 | 4.8 | 12.9 | 0.00 | 0.00 | 0.00 | 65 | 1005.7 |
| 20260510004504 | 31 | 215 | 8.0 | 16.1 | 0.00 | 0.00 | 0.00 | 62 | 1005.3 |
| 20260510003003 | 31 | 242 | 6.4 | 14.5 | 0.00 | 0.00 | 0.00 | 64 | 1005.0 |
| 20260510001600 | 32 | 234 | 6.4 | 16.1 | 0.00 | 0.00 | 0.00 | 62 | 1004.7 |
| 20260510000115 | 32 | 188 | 8.0 | 17.7 | 0.00 | 0.00 | 0.00 | 60 | 1004.6 |
| 20260509234621 | 32 | 249 | 9.7 | 17.7 | 0.00 | 0.00 | 0.00 | 59 | 1004.5 |
| 20260509233059 | 33 | 189 | 11.3 | 19.3 | 0.00 | 0.00 | 0.00 | 58 | 1004.6 |
| 20260509231610 | 33 | 235 | 14.5 | 24.1 | 0.00 | 0.00 | 0.00 | 56 | 1004.6 |
| 20260509230104 | 33 | 360 | 14.5 | 30.6 | 0.00 | 0.00 | 0.00 | 55 | 1004.5 |